sensor_id;sensor_type;location;lat;lon;timestamp;P1;durP1;ratioP1;P2;durP2;ratioP2
49123;SDS011;48506;48.202;16.274;2023-05-07T00:01:56;4.15;;;3.08;;
49123;SDS011;48506;48.202;16.274;2023-05-07T00:04:23;5.43;;;3.38;;
49123;SDS011;48506;48.202;16.274;2023-05-07T00:06:48;5.25;;;2.90;;
49123;SDS011;48506;48.202;16.274;2023-05-07T00:09:14;3.55;;;2.80;;
49123;SDS011;48506;48.202;16.274;2023-05-07T00:11:41;6.22;;;3.15;;
49123;SDS011;48506;48.202;16.274;2023-05-07T00:14:07;4.00;;;2.70;;
49123;SDS011;48506;48.202;16.274;2023-05-07T00:16:33;3.00;;;2.70;;
49123;SDS011;48506;48.202;16.274;2023-05-07T00:18:59;3.60;;;2.40;;
49123;SDS011;48506;48.202;16.274;2023-05-07T00:21:27;4.13;;;2.10;;
49123;SDS011;48506;48.202;16.274;2023-05-07T00:23:53;4.45;;;2.50;;
49123;SDS011;48506;48.202;16.274;2023-05-07T00:26:19;3.70;;;2.80;;
49123;SDS011;48506;48.202;16.274;2023-05-07T00:28:45;3.35;;;2.28;;
49123;SDS011;48506;48.202;16.274;2023-05-07T00:31:11;4.18;;;2.50;;
49123;SDS011;48506;48.202;16.274;2023-05-07T00:33:37;5.80;;;2.88;;
49123;SDS011;48506;48.202;16.274;2023-05-07T00:36:03;4.13;;;2.90;;
49123;SDS011;48506;48.202;16.274;2023-05-07T00:38:30;4.53;;;2.60;;
49123;SDS011;48506;48.202;16.274;2023-05-07T00:40:56;7.43;;;2.90;;
49123;SDS011;48506;48.202;16.274;2023-05-07T00:43:22;4.57;;;2.35;;
49123;SDS011;48506;48.202;16.274;2023-05-07T00:45:48;3.90;;;2.80;;
49123;SDS011;48506;48.202;16.274;2023-05-07T00:48:14;5.00;;;2.97;;
49123;SDS011;48506;48.202;16.274;2023-05-07T00:50:40;4.35;;;2.22;;
49123;SDS011;48506;48.202;16.274;2023-05-07T00:56:28;6.85;;;3.53;;
49123;SDS011;48506;48.202;16.274;2023-05-07T00:58:54;6.97;;;2.55;;
49123;SDS011;48506;48.202;16.274;2023-05-07T01:01:21;3.92;;;3.13;;
49123;SDS011;48506;48.202;16.274;2023-05-07T01:03:47;3.67;;;2.85;;
49123;SDS011;48506;48.202;16.274;2023-05-07T01:06:13;3.45;;;2.88;;
49123;SDS011;48506;48.202;16.274;2023-05-07T01:08:42;3.58;;;2.55;;
49123;SDS011;48506;48.202;16.274;2023-05-07T01:11:09;2.85;;;2.55;;
49123;SDS011;48506;48.202;16.274;2023-05-07T01:13:36;3.00;;;2.42;;
49123;SDS011;48506;48.202;16.274;2023-05-07T01:16:03;3.67;;;2.97;;
49123;SDS011;48506;48.202;16.274;2023-05-07T01:18:30;3.70;;;2.88;;
49123;SDS011;48506;48.202;16.274;2023-05-07T01:20:57;6.13;;;2.97;;
49123;SDS011;48506;48.202;16.274;2023-05-07T01:23:25;5.75;;;3.60;;
49123;SDS011;48506;48.202;16.274;2023-05-07T01:25:53;6.28;;;3.47;;
49123;SDS011;48506;48.202;16.274;2023-05-07T01:28:20;3.63;;;2.67;;
49123;SDS011;48506;48.202;16.274;2023-05-07T01:30:54;3.42;;;2.83;;
49123;SDS011;48506;48.202;16.274;2023-05-07T01:33:23;3.45;;;2.78;;
49123;SDS011;48506;48.202;16.274;2023-05-07T01:35:51;2.55;;;2.35;;
49123;SDS011;48506;48.202;16.274;2023-05-07T01:38:19;2.60;;;2.40;;
49123;SDS011;48506;48.202;16.274;2023-05-07T01:40:47;3.45;;;2.92;;
49123;SDS011;48506;48.202;16.274;2023-05-07T01:43:13;4.25;;;3.05;;
49123;SDS011;48506;48.202;16.274;2023-05-07T01:45:39;3.42;;;2.83;;
49123;SDS011;48506;48.202;16.274;2023-05-07T01:48:06;4.38;;;3.17;;
49123;SDS011;48506;48.202;16.274;2023-05-07T01:50:34;4.50;;;2.80;;
49123;SDS011;48506;48.202;16.274;2023-05-07T01:53:02;4.32;;;2.30;;
49123;SDS011;48506;48.202;16.274;2023-05-07T01:55:28;5.03;;;3.50;;
49123;SDS011;48506;48.202;16.274;2023-05-07T01:57:54;3.60;;;3.20;;
49123;SDS011;48506;48.202;16.274;2023-05-07T02:00:20;7.93;;;3.60;;
49123;SDS011;48506;48.202;16.274;2023-05-07T02:02:46;4.30;;;3.08;;
49123;SDS011;48506;48.202;16.274;2023-05-07T02:05:12;4.40;;;3.05;;
49123;SDS011;48506;48.202;16.274;2023-05-07T02:07:38;4.53;;;2.80;;
49123;SDS011;48506;48.202;16.274;2023-05-07T02:19:11;3.88;;;2.83;;
49123;SDS011;48506;48.202;16.274;2023-05-07T02:21:37;3.35;;;2.92;;
49123;SDS011;48506;48.202;16.274;2023-05-07T02:24:03;4.10;;;3.20;;
49123;SDS011;48506;48.202;16.274;2023-05-07T02:26:29;4.07;;;3.38;;
49123;SDS011;48506;48.202;16.274;2023-05-07T02:28:55;4.47;;;3.20;;
49123;SDS011;48506;48.202;16.274;2023-05-07T02:31:21;3.50;;;3.13;;
49123;SDS011;48506;48.202;16.274;2023-05-07T02:33:47;4.50;;;3.92;;
49123;SDS011;48506;48.202;16.274;2023-05-07T02:36:13;5.13;;;3.42;;
49123;SDS011;48506;48.202;16.274;2023-05-07T02:38:39;4.15;;;3.47;;
49123;SDS011;48506;48.202;16.274;2023-05-07T02:41:05;4.75;;;3.92;;
49123;SDS011;48506;48.202;16.274;2023-05-07T02:43:30;7.22;;;4.70;;
49123;SDS011;48506;48.202;16.274;2023-05-07T02:46:07;3.95;;;3.58;;
49123;SDS011;48506;48.202;16.274;2023-05-07T02:48:34;10.13;;;3.83;;
49123;SDS011;48506;48.202;16.274;2023-05-07T02:51:00;6.78;;;3.70;;
49123;SDS011;48506;48.202;16.274;2023-05-07T02:53:27;4.68;;;4.15;;
49123;SDS011;48506;48.202;16.274;2023-05-07T02:55:57;9.73;;;4.22;;
49123;SDS011;48506;48.202;16.274;2023-05-07T02:58:25;6.30;;;4.32;;
49123;SDS011;48506;48.202;16.274;2023-05-07T03:00:51;8.80;;;4.00;;
49123;SDS011;48506;48.202;16.274;2023-05-07T03:03:18;9.18;;;5.05;;
49123;SDS011;48506;48.202;16.274;2023-05-07T03:05:43;6.88;;;4.88;;
49123;SDS011;48506;48.202;16.274;2023-05-07T03:08:09;5.85;;;4.85;;
49123;SDS011;48506;48.202;16.274;2023-05-07T03:10:36;8.73;;;5.25;;
49123;SDS011;48506;48.202;16.274;2023-05-07T03:13:02;7.57;;;5.25;;
49123;SDS011;48506;48.202;16.274;2023-05-07T03:45:26;10.25;;;6.70;;
49123;SDS011;48506;48.202;16.274;2023-05-07T03:47:52;10.63;;;7.35;;
49123;SDS011;48506;48.202;16.274;2023-05-07T03:50:19;13.68;;;8.02;;
49123;SDS011;48506;48.202;16.274;2023-05-07T03:52:45;11.23;;;7.20;;
49123;SDS011;48506;48.202;16.274;2023-05-07T03:55:11;9.05;;;7.22;;
49123;SDS011;48506;48.202;16.274;2023-05-07T03:57:37;12.95;;;8.60;;
49123;SDS011;48506;48.202;16.274;2023-05-07T04:00:03;13.60;;;8.77;;
49123;SDS011;48506;48.202;16.274;2023-05-07T04:02:29;14.00;;;9.20;;
49123;SDS011;48506;48.202;16.274;2023-05-07T04:04:55;16.55;;;9.68;;
49123;SDS011;48506;48.202;16.274;2023-05-07T04:07:21;14.10;;;10.38;;
49123;SDS011;48506;48.202;16.274;2023-05-07T04:09:47;15.85;;;8.55;;
49123;SDS011;48506;48.202;16.274;2023-05-07T04:12:14;13.02;;;8.52;;
49123;SDS011;48506;48.202;16.274;2023-05-07T04:14:40;14.13;;;9.68;;
49123;SDS011;48506;48.202;16.274;2023-05-07T04:17:06;10.95;;;8.55;;
49123;SDS011;48506;48.202;16.274;2023-05-07T04:19:34;18.15;;;10.35;;
49123;SDS011;48506;48.202;16.274;2023-05-07T04:22:01;12.70;;;9.38;;
49123;SDS011;48506;48.202;16.274;2023-05-07T04:24:26;16.80;;;9.13;;
49123;SDS011;48506;48.202;16.274;2023-05-07T04:26:52;10.75;;;8.68;;
49123;SDS011;48506;48.202;16.274;2023-05-07T04:29:21;13.88;;;9.55;;
49123;SDS011;48506;48.202;16.274;2023-05-07T04:31:47;13.75;;;9.43;;
49123;SDS011;48506;48.202;16.274;2023-05-07T04:34:13;14.32;;;9.50;;
49123;SDS011;48506;48.202;16.274;2023-05-07T04:36:39;15.95;;;10.18;;
49123;SDS011;48506;48.202;16.274;2023-05-07T04:39:05;20.42;;;10.35;;
49123;SDS011;48506;48.202;16.274;2023-05-07T04:41:31;14.50;;;10.82;;
49123;SDS011;48506;48.202;16.274;2023-05-07T04:43:57;14.30;;;10.10;;
49123;SDS011;48506;48.202;16.274;2023-05-07T04:46:24;15.95;;;10.50;;
49123;SDS011;48506;48.202;16.274;2023-05-07T04:48:50;14.60;;;10.07;;
49123;SDS011;48506;48.202;16.274;2023-05-07T04:51:16;20.92;;;11.35;;
49123;SDS011;48506;48.202;16.274;2023-05-07T04:53:42;16.85;;;11.63;;
49123;SDS011;48506;48.202;16.274;2023-05-07T04:56:09;19.08;;;11.38;;
49123;SDS011;48506;48.202;16.274;2023-05-07T04:58:34;17.17;;;10.45;;
49123;SDS011;48506;48.202;16.274;2023-05-07T05:01:00;15.75;;;9.90;;
49123;SDS011;48506;48.202;16.274;2023-05-07T05:03:27;14.45;;;9.85;;
49123;SDS011;48506;48.202;16.274;2023-05-07T05:05:53;13.48;;;9.75;;
49123;SDS011;48506;48.202;16.274;2023-05-07T05:08:19;15.13;;;10.95;;
49123;SDS011;48506;48.202;16.274;2023-05-07T05:10:45;18.95;;;11.75;;
49123;SDS011;48506;48.202;16.274;2023-05-07T05:13:10;16.20;;;11.18;;
49123;SDS011;48506;48.202;16.274;2023-05-07T05:15:38;20.58;;;15.25;;
49123;SDS011;48506;48.202;16.274;2023-05-07T05:18:04;20.70;;;15.32;;
49123;SDS011;48506;48.202;16.274;2023-05-07T05:20:30;25.98;;;17.38;;
49123;SDS011;48506;48.202;16.274;2023-05-07T05:22:56;24.48;;;17.75;;
49123;SDS011;48506;48.202;16.274;2023-05-07T05:25:22;25.00;;;18.05;;
49123;SDS011;48506;48.202;16.274;2023-05-07T05:27:48;32.63;;;20.05;;
49123;SDS011;48506;48.202;16.274;2023-05-07T05:30:14;28.95;;;20.52;;
49123;SDS011;48506;48.202;16.274;2023-05-07T05:32:40;30.48;;;21.65;;
49123;SDS011;48506;48.202;16.274;2023-05-07T05:35:06;36.20;;;22.83;;
49123;SDS011;48506;48.202;16.274;2023-05-07T05:37:32;31.30;;;21.77;;
49123;SDS011;48506;48.202;16.274;2023-05-07T05:39:58;36.28;;;23.02;;
49123;SDS011;48506;48.202;16.274;2023-05-07T05:42:24;32.25;;;21.52;;
49123;SDS011;48506;48.202;16.274;2023-05-07T05:44:50;34.88;;;22.05;;
49123;SDS011;48506;48.202;16.274;2023-05-07T05:47:16;32.47;;;24.17;;
49123;SDS011;48506;48.202;16.274;2023-05-07T05:49:42;30.73;;;22.27;;
49123;SDS011;48506;48.202;16.274;2023-05-07T05:52:08;29.67;;;21.95;;
49123;SDS011;48506;48.202;16.274;2023-05-07T05:54:35;32.75;;;23.05;;
49123;SDS011;48506;48.202;16.274;2023-05-07T05:57:01;35.92;;;25.13;;
49123;SDS011;48506;48.202;16.274;2023-05-07T05:59:29;34.35;;;24.75;;
49123;SDS011;48506;48.202;16.274;2023-05-07T06:01:55;37.25;;;24.67;;
49123;SDS011;48506;48.202;16.274;2023-05-07T06:04:21;35.83;;;24.17;;
49123;SDS011;48506;48.202;16.274;2023-05-07T06:06:47;33.28;;;24.55;;
49123;SDS011;48506;48.202;16.274;2023-05-07T06:09:13;34.50;;;22.70;;
49123;SDS011;48506;48.202;16.274;2023-05-07T06:11:39;35.25;;;23.75;;
49123;SDS011;48506;48.202;16.274;2023-05-07T06:14:06;33.42;;;23.77;;
49123;SDS011;48506;48.202;16.274;2023-05-07T06:16:33;34.92;;;25.17;;
49123;SDS011;48506;48.202;16.274;2023-05-07T06:18:59;33.67;;;24.85;;
49123;SDS011;48506;48.202;16.274;2023-05-07T06:21:25;40.47;;;25.20;;
49123;SDS011;48506;48.202;16.274;2023-05-07T06:23:51;32.95;;;25.77;;
49123;SDS011;48506;48.202;16.274;2023-05-07T06:26:17;32.53;;;23.35;;
49123;SDS011;48506;48.202;16.274;2023-05-07T06:28:43;36.60;;;25.17;;
49123;SDS011;48506;48.202;16.274;2023-05-07T06:31:15;34.90;;;25.30;;
49123;SDS011;48506;48.202;16.274;2023-05-07T06:33:45;37.60;;;25.80;;
49123;SDS011;48506;48.202;16.274;2023-05-07T06:36:11;38.13;;;26.42;;
49123;SDS011;48506;48.202;16.274;2023-05-07T06:38:39;38.85;;;27.52;;
49123;SDS011;48506;48.202;16.274;2023-05-07T06:41:05;32.75;;;24.55;;
49123;SDS011;48506;48.202;16.274;2023-05-07T06:43:32;35.08;;;26.08;;
49123;SDS011;48506;48.202;16.274;2023-05-07T06:46:00;33.80;;;23.27;;
49123;SDS011;48506;48.202;16.274;2023-05-07T06:48:26;35.35;;;24.63;;
49123;SDS011;48506;48.202;16.274;2023-05-07T06:50:53;29.13;;;23.02;;
49123;SDS011;48506;48.202;16.274;2023-05-07T06:53:20;34.97;;;25.45;;
49123;SDS011;48506;48.202;16.274;2023-05-07T06:55:47;31.45;;;23.35;;
49123;SDS011;48506;48.202;16.274;2023-05-07T06:58:14;34.10;;;23.55;;
49123;SDS011;48506;48.202;16.274;2023-05-07T07:00:40;32.85;;;23.55;;
49123;SDS011;48506;48.202;16.274;2023-05-07T07:03:06;30.48;;;23.10;;
49123;SDS011;48506;48.202;16.274;2023-05-07T07:05:32;32.05;;;22.80;;
49123;SDS011;48506;48.202;16.274;2023-05-07T07:08:00;30.67;;;21.77;;
49123;SDS011;48506;48.202;16.274;2023-05-07T07:10:26;34.47;;;22.50;;
49123;SDS011;48506;48.202;16.274;2023-05-07T07:12:52;29.92;;;21.25;;
49123;SDS011;48506;48.202;16.274;2023-05-07T07:15:19;27.08;;;20.92;;
49123;SDS011;48506;48.202;16.274;2023-05-07T07:17:51;26.77;;;20.15;;
49123;SDS011;48506;48.202;16.274;2023-05-07T07:20:17;28.60;;;19.80;;
49123;SDS011;48506;48.202;16.274;2023-05-07T07:22:43;24.98;;;19.25;;
49123;SDS011;48506;48.202;16.274;2023-05-07T07:25:09;26.88;;;19.88;;
49123;SDS011;48506;48.202;16.274;2023-05-07T07:27:36;29.40;;;19.98;;
49123;SDS011;48506;48.202;16.274;2023-05-07T07:30:03;30.23;;;18.95;;
49123;SDS011;48506;48.202;16.274;2023-05-07T07:32:31;26.45;;;18.33;;
49123;SDS011;48506;48.202;16.274;2023-05-07T07:34:58;28.42;;;19.48;;
49123;SDS011;48506;48.202;16.274;2023-05-07T07:37:26;31.17;;;21.17;;
49123;SDS011;48506;48.202;16.274;2023-05-07T07:39:52;25.30;;;19.35;;
49123;SDS011;48506;48.202;16.274;2023-05-07T07:42:18;25.73;;;18.98;;
49123;SDS011;48506;48.202;16.274;2023-05-07T07:44:44;24.70;;;18.15;;
49123;SDS011;48506;48.202;16.274;2023-05-07T07:47:11;21.38;;;16.80;;
49123;SDS011;48506;48.202;16.274;2023-05-07T07:49:37;21.42;;;15.73;;
49123;SDS011;48506;48.202;16.274;2023-05-07T07:52:04;20.23;;;14.82;;
49123;SDS011;48506;48.202;16.274;2023-05-07T07:54:30;22.50;;;16.25;;
49123;SDS011;48506;48.202;16.274;2023-05-07T07:56:56;20.67;;;14.82;;
49123;SDS011;48506;48.202;16.274;2023-05-07T07:59:22;19.98;;;15.68;;
49123;SDS011;48506;48.202;16.274;2023-05-07T08:01:48;19.85;;;15.13;;
49123;SDS011;48506;48.202;16.274;2023-05-07T08:04:15;19.45;;;15.13;;
49123;SDS011;48506;48.202;16.274;2023-05-07T08:06:41;19.63;;;13.98;;
49123;SDS011;48506;48.202;16.274;2023-05-07T08:09:07;18.30;;;13.88;;
49123;SDS011;48506;48.202;16.274;2023-05-07T08:11:33;20.20;;;14.63;;
49123;SDS011;48506;48.202;16.274;2023-05-07T08:13:59;23.23;;;15.70;;
49123;SDS011;48506;48.202;16.274;2023-05-07T08:16:25;23.15;;;13.88;;
49123;SDS011;48506;48.202;16.274;2023-05-07T08:18:52;18.63;;;15.07;;
49123;SDS011;48506;48.202;16.274;2023-05-07T08:21:18;24.45;;;14.63;;
49123;SDS011;48506;48.202;16.274;2023-05-07T08:23:45;19.42;;;14.13;;
49123;SDS011;48506;48.202;16.274;2023-05-07T08:26:12;18.75;;;13.48;;
49123;SDS011;48506;48.202;16.274;2023-05-07T08:28:38;18.60;;;13.50;;
49123;SDS011;48506;48.202;16.274;2023-05-07T08:31:05;15.38;;;12.32;;
49123;SDS011;48506;48.202;16.274;2023-05-07T08:33:31;17.63;;;13.15;;
49123;SDS011;48506;48.202;16.274;2023-05-07T08:35:57;17.58;;;12.52;;
49123;SDS011;48506;48.202;16.274;2023-05-07T08:38:23;16.88;;;13.15;;
49123;SDS011;48506;48.202;16.274;2023-05-07T08:40:49;15.60;;;12.52;;
49123;SDS011;48506;48.202;16.274;2023-05-07T08:43:15;17.10;;;12.70;;
49123;SDS011;48506;48.202;16.274;2023-05-07T08:45:44;17.50;;;13.27;;
49123;SDS011;48506;48.202;16.274;2023-05-07T08:48:17;15.23;;;12.82;;
49123;SDS011;48506;48.202;16.274;2023-05-07T08:50:47;19.42;;;13.93;;
49123;SDS011;48506;48.202;16.274;2023-05-07T08:53:13;17.52;;;13.48;;
49123;SDS011;48506;48.202;16.274;2023-05-07T08:55:41;16.17;;;13.18;;
49123;SDS011;48506;48.202;16.274;2023-05-07T08:58:09;18.67;;;13.68;;
49123;SDS011;48506;48.202;16.274;2023-05-07T09:00:36;15.88;;;13.23;;
49123;SDS011;48506;48.202;16.274;2023-05-07T09:03:03;16.42;;;12.75;;
49123;SDS011;48506;48.202;16.274;2023-05-07T09:05:29;14.88;;;12.50;;
49123;SDS011;48506;48.202;16.274;2023-05-07T09:07:58;17.05;;;12.70;;
49123;SDS011;48506;48.202;16.274;2023-05-07T09:10:25;16.23;;;13.00;;
49123;SDS011;48506;48.202;16.274;2023-05-07T09:12:51;16.77;;;11.88;;
49123;SDS011;48506;48.202;16.274;2023-05-07T09:15:19;17.17;;;12.68;;
49123;SDS011;48506;48.202;16.274;2023-05-07T09:17:45;20.20;;;13.52;;
49123;SDS011;48506;48.202;16.274;2023-05-07T09:20:11;18.52;;;13.20;;
49123;SDS011;48506;48.202;16.274;2023-05-07T09:22:37;16.20;;;12.95;;
49123;SDS011;48506;48.202;16.274;2023-05-07T09:25:05;18.38;;;13.70;;
49123;SDS011;48506;48.202;16.274;2023-05-07T09:27:32;16.65;;;11.57;;
49123;SDS011;48506;48.202;16.274;2023-05-07T09:30:02;16.33;;;12.88;;
49123;SDS011;48506;48.202;16.274;2023-05-07T09:32:34;14.93;;;11.90;;
49123;SDS011;48506;48.202;16.274;2023-05-07T09:35:03;14.90;;;11.65;;
49123;SDS011;48506;48.202;16.274;2023-05-07T09:37:30;17.88;;;11.80;;
49123;SDS011;48506;48.202;16.274;2023-05-07T09:39:57;15.60;;;12.38;;
49123;SDS011;48506;48.202;16.274;2023-05-07T09:42:24;16.20;;;12.80;;
49123;SDS011;48506;48.202;16.274;2023-05-07T09:44:52;15.30;;;10.95;;
49123;SDS011;48506;48.202;16.274;2023-05-07T09:47:19;16.58;;;11.82;;
49123;SDS011;48506;48.202;16.274;2023-05-07T09:49:49;16.80;;;13.15;;
49123;SDS011;48506;48.202;16.274;2023-05-07T09:52:20;16.15;;;12.75;;
49123;SDS011;48506;48.202;16.274;2023-05-07T09:54:47;14.95;;;12.20;;
49123;SDS011;48506;48.202;16.274;2023-05-07T09:57:15;17.77;;;12.25;;
49123;SDS011;48506;48.202;16.274;2023-05-07T09:59:44;13.27;;;11.10;;
49123;SDS011;48506;48.202;16.274;2023-05-07T10:02:13;14.93;;;12.02;;
49123;SDS011;48506;48.202;16.274;2023-05-07T10:04:42;19.98;;;13.70;;
49123;SDS011;48506;48.202;16.274;2023-05-07T10:07:08;16.65;;;11.85;;
49123;SDS011;48506;48.202;16.274;2023-05-07T10:09:35;13.73;;;10.13;;
49123;SDS011;48506;48.202;16.274;2023-05-07T10:12:04;14.82;;;11.48;;
49123;SDS011;48506;48.202;16.274;2023-05-07T10:14:33;15.30;;;10.05;;
49123;SDS011;48506;48.202;16.274;2023-05-07T10:17:00;13.23;;;9.75;;
49123;SDS011;48506;48.202;16.274;2023-05-07T10:19:27;12.98;;;9.93;;
49123;SDS011;48506;48.202;16.274;2023-05-07T10:21:55;12.40;;;9.20;;
49123;SDS011;48506;48.202;16.274;2023-05-07T10:24:29;19.55;;;10.65;;
49123;SDS011;48506;48.202;16.274;2023-05-07T10:26:59;15.63;;;9.13;;
49123;SDS011;48506;48.202;16.274;2023-05-07T10:29:30;12.93;;;9.50;;
49123;SDS011;48506;48.202;16.274;2023-05-07T10:32:33;12.40;;;9.35;;
49123;SDS011;48506;48.202;16.274;2023-05-07T10:35:10;10.48;;;9.27;;
49123;SDS011;48506;48.202;16.274;2023-05-07T10:38:05;11.88;;;8.88;;
49123;SDS011;48506;48.202;16.274;2023-05-07T10:40:32;11.13;;;9.05;;
49123;SDS011;48506;48.202;16.274;2023-05-07T10:42:59;12.88;;;10.02;;
49123;SDS011;48506;48.202;16.274;2023-05-07T10:45:28;12.00;;;9.90;;
49123;SDS011;48506;48.202;16.274;2023-05-07T10:48:07;14.65;;;10.18;;
49123;SDS011;48506;48.202;16.274;2023-05-07T10:50:35;10.63;;;8.38;;
49123;SDS011;48506;48.202;16.274;2023-05-07T10:55:46;10.23;;;7.45;;
49123;SDS011;48506;48.202;16.274;2023-05-07T10:58:27;14.32;;;11.82;;
49123;SDS011;48506;48.202;16.274;2023-05-07T11:01:00;11.63;;;8.40;;
49123;SDS011;48506;48.202;16.274;2023-05-07T11:03:27;17.02;;;9.50;;
49123;SDS011;48506;48.202;16.274;2023-05-07T11:06:10;12.82;;;9.75;;
49123;SDS011;48506;48.202;16.274;2023-05-07T11:09:11;10.45;;;9.13;;
49123;SDS011;48506;48.202;16.274;2023-05-07T11:17:11;12.13;;;9.27;;
49123;SDS011;48506;48.202;16.274;2023-05-07T11:19:49;13.20;;;9.90;;
49123;SDS011;48506;48.202;16.274;2023-05-07T11:25:02;12.63;;;9.20;;
49123;SDS011;48506;48.202;16.274;2023-05-07T11:27:29;10.98;;;9.70;;
49123;SDS011;48506;48.202;16.274;2023-05-07T11:29:55;12.82;;;9.80;;
49123;SDS011;48506;48.202;16.274;2023-05-07T11:32:23;13.68;;;10.60;;
49123;SDS011;48506;48.202;16.274;2023-05-07T11:34:54;15.35;;;12.52;;
49123;SDS011;48506;48.202;16.274;2023-05-07T11:37:21;12.07;;;9.15;;
49123;SDS011;48506;48.202;16.274;2023-05-07T11:39:48;13.73;;;9.00;;
49123;SDS011;48506;48.202;16.274;2023-05-07T11:42:27;9.98;;;8.25;;
49123;SDS011;48506;48.202;16.274;2023-05-07T11:44:55;11.57;;;9.25;;
49123;SDS011;48506;48.202;16.274;2023-05-07T11:47:23;11.82;;;10.60;;
49123;SDS011;48506;48.202;16.274;2023-05-07T11:49:51;12.02;;;9.05;;
49123;SDS011;48506;48.202;16.274;2023-05-07T11:52:20;11.32;;;8.38;;
49123;SDS011;48506;48.202;16.274;2023-05-07T11:54:49;10.70;;;8.45;;
49123;SDS011;48506;48.202;16.274;2023-05-07T11:57:15;9.80;;;7.53;;
49123;SDS011;48506;48.202;16.274;2023-05-07T11:59:41;10.73;;;8.05;;
49123;SDS011;48506;48.202;16.274;2023-05-07T12:02:09;10.93;;;8.95;;
49123;SDS011;48506;48.202;16.274;2023-05-07T12:04:36;11.77;;;8.73;;
49123;SDS011;48506;48.202;16.274;2023-05-07T12:07:04;11.85;;;8.38;;
49123;SDS011;48506;48.202;16.274;2023-05-07T12:09:32;10.82;;;8.63;;
49123;SDS011;48506;48.202;16.274;2023-05-07T12:12:03;14.32;;;8.55;;
49123;SDS011;48506;48.202;16.274;2023-05-07T12:14:31;11.48;;;8.35;;
49123;SDS011;48506;48.202;16.274;2023-05-07T12:17:00;10.90;;;7.57;;
49123;SDS011;48506;48.202;16.274;2023-05-07T12:19:30;10.73;;;7.82;;
49123;SDS011;48506;48.202;16.274;2023-05-07T12:21:57;9.10;;;7.60;;
49123;SDS011;48506;48.202;16.274;2023-05-07T12:24:23;8.68;;;7.13;;
49123;SDS011;48506;48.202;16.274;2023-05-07T12:26:49;12.02;;;8.40;;
49123;SDS011;48506;48.202;16.274;2023-05-07T12:29:15;9.35;;;7.65;;
49123;SDS011;48506;48.202;16.274;2023-05-07T12:31:41;10.90;;;8.02;;
49123;SDS011;48506;48.202;16.274;2023-05-07T12:34:10;11.00;;;8.52;;
49123;SDS011;48506;48.202;16.274;2023-05-07T12:36:39;8.70;;;7.18;;
49123;SDS011;48506;48.202;16.274;2023-05-07T12:39:06;8.73;;;7.72;;
49123;SDS011;48506;48.202;16.274;2023-05-07T12:41:36;18.48;;;11.23;;
49123;SDS011;48506;48.202;16.274;2023-05-07T12:44:25;12.20;;;9.48;;
49123;SDS011;48506;48.202;16.274;2023-05-07T12:46:55;14.73;;;10.57;;
49123;SDS011;48506;48.202;16.274;2023-05-07T12:49:22;10.50;;;8.15;;
49123;SDS011;48506;48.202;16.274;2023-05-07T12:51:50;12.05;;;8.45;;
49123;SDS011;48506;48.202;16.274;2023-05-07T12:54:36;18.00;;;12.82;;
49123;SDS011;48506;48.202;16.274;2023-05-07T12:57:09;12.40;;;8.80;;
49123;SDS011;48506;48.202;16.274;2023-05-07T12:59:38;8.93;;;7.07;;
49123;SDS011;48506;48.202;16.274;2023-05-07T13:02:06;12.82;;;8.55;;
49123;SDS011;48506;48.202;16.274;2023-05-07T13:04:32;8.80;;;7.47;;
49123;SDS011;48506;48.202;16.274;2023-05-07T13:06:59;7.78;;;6.55;;
49123;SDS011;48506;48.202;16.274;2023-05-07T13:09:25;8.43;;;6.65;;
49123;SDS011;48506;48.202;16.274;2023-05-07T13:11:51;10.85;;;8.07;;
49123;SDS011;48506;48.202;16.274;2023-05-07T13:14:17;8.27;;;7.03;;
49123;SDS011;48506;48.202;16.274;2023-05-07T13:16:46;11.55;;;7.07;;
49123;SDS011;48506;48.202;16.274;2023-05-07T13:19:13;8.25;;;6.53;;
49123;SDS011;48506;48.202;16.274;2023-05-07T13:21:38;9.40;;;7.07;;
49123;SDS011;48506;48.202;16.274;2023-05-07T13:24:04;7.68;;;6.88;;
49123;SDS011;48506;48.202;16.274;2023-05-07T13:26:31;8.88;;;6.95;;
49123;SDS011;48506;48.202;16.274;2023-05-07T13:28:57;10.65;;;7.00;;
49123;SDS011;48506;48.202;16.274;2023-05-07T13:31:23;7.60;;;6.78;;
49123;SDS011;48506;48.202;16.274;2023-05-07T13:33:50;7.28;;;5.50;;
49123;SDS011;48506;48.202;16.274;2023-05-07T13:36:15;10.77;;;6.85;;
49123;SDS011;48506;48.202;16.274;2023-05-07T13:38:41;7.05;;;5.75;;
49123;SDS011;48506;48.202;16.274;2023-05-07T13:41:07;7.38;;;6.22;;
49123;SDS011;48506;48.202;16.274;2023-05-07T13:43:35;7.88;;;6.25;;
49123;SDS011;48506;48.202;16.274;2023-05-07T13:46:01;8.75;;;6.28;;
49123;SDS011;48506;48.202;16.274;2023-05-07T13:48:28;7.65;;;6.68;;
49123;SDS011;48506;48.202;16.274;2023-05-07T13:50:54;9.05;;;6.13;;
49123;SDS011;48506;48.202;16.274;2023-05-07T13:53:20;8.27;;;6.38;;
49123;SDS011;48506;48.202;16.274;2023-05-07T13:55:46;7.75;;;6.18;;
49123;SDS011;48506;48.202;16.274;2023-05-07T13:58:12;9.45;;;6.30;;
49123;SDS011;48506;48.202;16.274;2023-05-07T14:00:38;9.75;;;6.07;;
49123;SDS011;48506;48.202;16.274;2023-05-07T14:03:04;8.57;;;5.88;;
49123;SDS011;48506;48.202;16.274;2023-05-07T14:05:32;7.97;;;5.18;;
49123;SDS011;48506;48.202;16.274;2023-05-07T14:07:58;9.82;;;6.25;;
49123;SDS011;48506;48.202;16.274;2023-05-07T14:10:24;6.93;;;5.50;;
49123;SDS011;48506;48.202;16.274;2023-05-07T14:12:51;9.18;;;6.10;;
49123;SDS011;48506;48.202;16.274;2023-05-07T14:15:18;8.15;;;6.47;;
49123;SDS011;48506;48.202;16.274;2023-05-07T14:17:44;6.93;;;5.20;;
49123;SDS011;48506;48.202;16.274;2023-05-07T14:20:12;6.95;;;5.32;;
49123;SDS011;48506;48.202;16.274;2023-05-07T14:22:38;6.07;;;5.22;;
49123;SDS011;48506;48.202;16.274;2023-05-07T14:25:05;5.65;;;4.95;;
49123;SDS011;48506;48.202;16.274;2023-05-07T14:27:32;8.57;;;5.47;;
49123;SDS011;48506;48.202;16.274;2023-05-07T14:29:58;5.30;;;4.80;;
49123;SDS011;48506;48.202;16.274;2023-05-07T14:32:24;6.35;;;5.22;;
49123;SDS011;48506;48.202;16.274;2023-05-07T14:34:50;7.00;;;5.30;;
49123;SDS011;48506;48.202;16.274;2023-05-07T14:37:16;7.05;;;4.53;;
49123;SDS011;48506;48.202;16.274;2023-05-07T14:39:44;7.00;;;5.07;;
49123;SDS011;48506;48.202;16.274;2023-05-07T14:42:10;5.57;;;4.80;;
49123;SDS011;48506;48.202;16.274;2023-05-07T14:44:37;6.88;;;4.97;;
49123;SDS011;48506;48.202;16.274;2023-05-07T14:47:06;6.57;;;4.77;;
49123;SDS011;48506;48.202;16.274;2023-05-07T14:49:33;4.78;;;4.30;;
49123;SDS011;48506;48.202;16.274;2023-05-07T14:52:00;8.63;;;5.07;;
49123;SDS011;48506;48.202;16.274;2023-05-07T14:54:26;4.95;;;4.38;;
49123;SDS011;48506;48.202;16.274;2023-05-07T14:56:52;8.02;;;4.70;;
49123;SDS011;48506;48.202;16.274;2023-05-07T14:59:19;5.95;;;4.57;;
49123;SDS011;48506;48.202;16.274;2023-05-07T15:01:46;5.85;;;3.78;;
49123;SDS011;48506;48.202;16.274;2023-05-07T15:04:13;5.20;;;4.70;;
49123;SDS011;48506;48.202;16.274;2023-05-07T15:06:40;6.80;;;4.10;;
49123;SDS011;48506;48.202;16.274;2023-05-07T15:09:07;4.78;;;3.97;;
49123;SDS011;48506;48.202;16.274;2023-05-07T15:11:34;5.47;;;4.45;;
49123;SDS011;48506;48.202;16.274;2023-05-07T15:14:00;5.22;;;4.32;;
49123;SDS011;48506;48.202;16.274;2023-05-07T15:16:26;5.78;;;4.03;;